Time;durP1;ratioP1;P1;durP2;ratioP2;P2;SDS_P1;SDS_P2;PMS_P1;PMS_P2;Temp;Humidity;BMP_temperature;BMP_pressure;BME280_temperature;BME280_humidity;BME280_pressure;Samples;Min_cycle;Max_cycle;Signal;HPM_P1;HPM_P2
2024/04/04 00:01:50;;;;;;;15.13;4.60;;;10.60;99.90;;;;;;7370365;19;20025;-61
2024/04/04 00:04:16;;;;;;;16.15;5.07;;;10.50;99.90;;;;;;7371062;19;20106;-59
2024/04/04 00:06:44;;;;;;;15.02;4.28;;;10.60;99.90;;;;;;7364932;19;20014;-59
2024/04/04 00:09:10;;;;;;;17.77;4.47;;;10.60;99.90;;;;;;7367123;19;20022;-60
2024/04/04 00:11:37;;;;;;;18.65;4.90;;;10.50;99.90;;;;;;7360650;19;20054;-66
2024/04/04 00:14:05;;;;;;;16.52;4.47;;;10.50;99.90;;;;;;7369854;19;20023;-65
2024/04/04 00:16:34;;;;;;;16.00;3.92;;;10.50;99.90;;;;;;7371511;19;20787;-66
2024/04/04 00:19:01;;;;;;;17.58;3.63;;;10.50;99.90;;;;;;7368052;19;20448;-65
2024/04/04 00:21:27;;;;;;;17.05;4.95;;;10.50;99.90;;;;;;7371107;19;20090;-66
2024/04/04 00:23:53;;;;;;;16.67;4.38;;;10.50;99.90;;;;;;7368419;19;20027;-66
2024/04/04 00:26:23;;;;;;;15.68;4.03;;;10.40;99.90;;;;;;7364745;19;20054;-59
2024/04/04 00:28:49;;;;;;;15.65;3.90;;;10.50;99.90;;;;;;7372899;19;20014;-59
2024/04/04 00:31:16;;;;;;;19.00;3.75;;;10.40;99.90;;;;;;7361935;19;20775;-66
2024/04/04 00:33:42;;;;;;;14.23;3.38;;;10.40;99.90;;;;;;7369222;19;20011;-66
2024/04/04 00:36:08;;;;;;;16.65;4.43;;;10.50;99.90;;;;;;7364211;19;20061;-66
2024/04/04 00:38:35;;;;;;;18.38;4.22;;;10.40;99.90;;;;;;7367231;19;20605;-66
2024/04/04 00:41:02;;;;;;;15.48;3.67;;;10.40;99.90;;;;;;7364400;19;20585;-61
2024/04/04 00:43:28;;;;;;;14.90;3.72;;;10.40;99.90;;;;;;7375291;19;20018;-60
2024/04/04 00:45:56;;;;;;;16.45;4.05;;;10.40;99.90;;;;;;7365777;19;20048;-66
2024/04/04 00:48:24;;;;;;;19.00;3.53;;;10.30;99.90;;;;;;7365366;19;20040;-60
2024/04/04 00:50:52;;;;;;;17.33;3.60;;;10.30;99.90;;;;;;7365638;19;20015;-66
2024/04/04 00:53:20;;;;;;;11.93;3.42;;;10.30;99.90;;;;;;7363100;19;20023;-66
2024/04/04 00:55:48;;;;;;;14.10;3.35;;;10.30;99.90;;;;;;7367226;19;20073;-65
2024/04/04 00:58:17;;;;;;;13.50;3.35;;;10.30;99.90;;;;;;7369240;19;20015;-59
2024/04/04 01:00:43;;;;;;;14.60;3.80;;;10.30;99.90;;;;;;7368511;19;20026;-59
2024/04/04 01:03:10;;;;;;;15.10;3.72;;;10.30;99.90;;;;;;7357499;19;21192;-64
2024/04/04 01:05:37;;;;;;;14.15;3.22;;;10.20;99.90;;;;;;7367393;19;20022;-66
2024/04/04 01:08:05;;;;;;;14.77;3.63;;;10.10;99.90;;;;;;7363980;19;20359;-66
2024/04/04 01:10:31;;;;;;;17.20;3.80;;;10.10;99.90;;;;;;7366143;19;20082;-66
2024/04/04 01:12:58;;;;;;;13.32;3.67;;;10.10;99.90;;;;;;7361002;19;20021;-65
2024/04/04 01:15:24;;;;;;;12.48;3.38;;;10.00;99.90;;;;;;7364678;19;20057;-66
2024/04/04 01:17:51;;;;;;;12.15;3.47;;;10.00;99.90;;;;;;7364799;19;20046;-59
2024/04/04 01:20:17;;;;;;;14.73;3.75;;;9.90;99.90;;;;;;7367347;19;20019;-66
2024/04/04 01:22:43;;;;;;;15.45;3.10;;;9.90;99.90;;;;;;7354230;19;20078;-66
2024/04/04 01:25:09;;;;;;;11.35;3.58;;;9.90;99.90;;;;;;7368470;19;20022;-59
2024/04/04 01:27:35;;;;;;;16.63;3.70;;;9.90;99.90;;;;;;7368414;19;20018;-59
2024/04/04 01:30:02;;;;;;;17.55;3.80;;;9.80;99.90;;;;;;7357495;19;20789;-66
2024/04/04 01:32:31;;;;;;;12.85;3.22;;;9.80;99.90;;;;;;7364192;19;20015;-59
2024/04/04 01:34:57;;;;;;;12.40;3.70;;;9.70;99.90;;;;;;7365543;19;20534;-60
2024/04/04 01:37:23;;;;;;;15.07;3.85;;;9.70;99.90;;;;;;7366030;19;20359;-60
2024/04/04 01:39:50;;;;;;;12.60;2.70;;;9.60;99.90;;;;;;7364567;19;20981;-66
2024/04/04 01:42:16;;;;;;;11.27;3.47;;;9.60;99.90;;;;;;7365695;19;20029;-66
2024/04/04 01:44:42;;;;;;;12.30;3.88;;;9.50;99.90;;;;;;7364441;19;20033;-60
2024/04/04 01:47:08;;;;;;;14.38;3.83;;;9.40;99.90;;;;;;7371160;19;20047;-58
2024/04/04 01:49:34;;;;;;;19.13;3.85;;;9.40;99.90;;;;;;7369854;19;20018;-59
2024/04/04 01:52:01;;;;;;;15.27;3.05;;;9.30;99.90;;;;;;7366615;19;20018;-59
2024/04/04 01:54:27;;;;;;;14.07;3.83;;;9.30;99.90;;;;;;7364874;19;20047;-65
2024/04/04 01:56:53;;;;;;;14.07;3.35;;;9.20;99.90;;;;;;7364833;19;21242;-59
2024/04/04 01:59:20;;;;;;;11.55;3.67;;;9.20;99.90;;;;;;7365768;19;20406;-66
2024/04/04 02:01:46;;;;;;;11.68;3.05;;;9.10;99.90;;;;;;7361492;19;20026;-67
2024/04/04 02:04:13;;;;;;;12.52;3.65;;;9.10;99.90;;;;;;7368076;19;20026;-59
2024/04/04 02:06:39;;;;;;;13.00;3.30;;;9.00;99.90;;;;;;7368796;19;20022;-65
2024/04/04 02:09:06;;;;;;;15.52;3.78;;;9.10;99.90;;;;;;7367170;19;20034;-65
2024/04/04 02:11:32;;;;;;;18.15;3.60;;;9.00;99.90;;;;;;7364429;19;20015;-59
2024/04/04 02:13:59;;;;;;;14.00;3.47;;;8.90;99.90;;;;;;7361470;19;20078;-65
2024/04/04 02:16:25;;;;;;;15.25;3.50;;;8.90;99.90;;;;;;7364997;19;20033;-59
2024/04/04 02:18:51;;;;;;;12.95;3.20;;;8.80;99.90;;;;;;7361069;19;20047;-59
2024/04/04 02:21:25;;;;;;;11.90;4.13;;;8.70;99.90;;;;;;7368581;19;20018;-65
2024/04/04 02:23:51;;;;;;;12.55;3.58;;;8.60;99.90;;;;;;7361947;19;20375;-65
2024/04/04 02:26:18;;;;;;;16.90;3.55;;;8.50;99.90;;;;;;7364775;19;20019;-65
2024/04/04 02:28:44;;;;;;;18.58;3.40;;;8.50;99.90;;;;;;7354289;19;20029;-66
2024/04/04 02:31:10;;;;;;;18.08;3.92;;;8.40;99.90;;;;;;7355151;19;20025;-59
2024/04/04 02:33:37;;;;;;;13.50;3.47;;;8.50;99.90;;;;;;7362271;19;20027;-58
2024/04/04 02:36:03;;;;;;;12.90;4.32;;;8.40;99.90;;;;;;7366734;19;21126;-59
2024/04/04 02:38:31;;;;;;;13.77;3.45;;;8.40;99.90;;;;;;7367168;19;20014;-65
2024/04/04 02:40:58;;;;;;;15.77;4.03;;;8.30;99.90;;;;;;7370726;19;20050;-65
2024/04/04 02:43:24;;;;;;;13.45;3.80;;;8.30;99.90;;;;;;7370051;19;20018;-65
2024/04/04 02:46:02;;;;;;;10.23;3.00;;;8.30;99.90;;;;;;7368868;19;20023;-59
2024/04/04 02:48:28;;;;;;;11.52;3.20;;;8.30;99.90;;;;;;7374231;19;20022;-58
2024/04/04 02:50:55;;;;;;;13.52;3.55;;;8.20;99.90;;;;;;7379014;19;20023;-59
2024/04/04 02:53:22;;;;;;;10.80;3.20;;;8.20;99.90;;;;;;7372916;19;20030;-65
2024/04/04 02:55:54;;;;;;;13.88;3.33;;;8.20;99.90;;;;;;7367616;19;20022;-66
2024/04/04 02:58:21;;;;;;;16.20;3.33;;;8.20;99.90;;;;;;7369201;19;20022;-59
2024/04/04 03:00:48;;;;;;;14.48;3.22;;;8.20;99.90;;;;;;7368653;19;20037;-64
2024/04/04 03:03:14;;;;;;;18.30;3.25;;;8.20;99.90;;;;;;7372996;19;20019;-59
2024/04/04 03:05:41;;;;;;;12.38;3.25;;;8.20;99.90;;;;;;7369979;19;20983;-65
2024/04/04 03:08:08;;;;;;;13.88;3.30;;;8.20;99.90;;;;;;7371105;19;20022;-66
2024/04/04 03:10:36;;;;;;;11.63;3.17;;;8.20;99.90;;;;;;7369370;19;20021;-66
2024/04/04 03:13:03;;;;;;;11.57;2.90;;;8.20;99.90;;;;;;7370676;19;20052;-59
2024/04/04 03:15:30;;;;;;;12.68;3.10;;;8.10;99.90;;;;;;7370540;19;20015;-59
2024/04/04 03:17:57;;;;;;;10.30;2.78;;;8.10;99.90;;;;;;7372401;19;20022;-59
2024/04/04 03:20:24;;;;;;;6.72;2.70;;;8.10;99.90;;;;;;7373103;19;20019;-59
2024/04/04 03:22:50;;;;;;;12.00;3.50;;;8.10;99.90;;;;;;7369085;19;20011;-59
2024/04/04 03:25:17;;;;;;;15.63;3.47;;;8.10;99.90;;;;;;7374813;19;20022;-58
2024/04/04 03:27:43;;;;;;;10.45;2.83;;;8.10;99.90;;;;;;7375740;19;20018;-59
2024/04/04 03:30:11;;;;;;;12.45;3.05;;;8.10;99.90;;;;;;7374516;19;20024;-60
2024/04/04 03:32:38;;;;;;;15.88;3.75;;;8.10;99.90;;;;;;7370506;19;20022;-60
2024/04/04 03:35:04;;;;;;;12.20;2.58;;;8.20;99.90;;;;;;7369229;19;20704;-65
2024/04/04 03:37:31;;;;;;;9.98;2.63;;;8.20;99.90;;;;;;7370940;19;20022;-58
2024/04/04 03:39:58;;;;;;;10.90;2.88;;;8.20;99.90;;;;;;7372705;19;20469;-61
2024/04/04 03:42:24;;;;;;;12.05;3.17;;;8.30;99.90;;;;;;7375910;19;20871;-59
2024/04/04 03:44:51;;;;;;;8.35;2.13;;;8.40;99.90;;;;;;7366299;19;20029;-60
2024/04/04 03:47:18;;;;;;;12.00;3.13;;;8.40;99.90;;;;;;7368827;19;20022;-60
2024/04/04 03:49:44;;;;;;;15.65;2.70;;;8.50;99.90;;;;;;7371154;19;20275;-59
2024/04/04 03:52:10;;;;;;;10.40;2.67;;;8.50;99.90;;;;;;7374326;19;20028;-59
2024/04/04 03:54:37;;;;;;;9.55;2.78;;;8.50;99.90;;;;;;7373661;19;20381;-59
2024/04/04 03:57:06;;;;;;;9.90;2.83;;;8.60;99.90;;;;;;7374834;19;20714;-59
2024/04/04 03:59:32;;;;;;;13.43;3.72;;;8.60;99.90;;;;;;7373426;19;20033;-59
2024/04/04 04:02:00;;;;;;;9.95;2.47;;;8.60;99.90;;;;;;7367254;19;20379;-66
2024/04/04 04:04:26;;;;;;;11.48;2.10;;;8.70;99.90;;;;;;7365297;19;20025;-65
2024/04/04 04:06:52;;;;;;;13.77;2.72;;;8.70;99.90;;;;;;7365625;19;20029;-65
2024/04/04 04:09:18;;;;;;;9.68;2.20;;;8.70;99.90;;;;;;7372485;19;20023;-60
2024/04/04 04:11:45;;;;;;;10.02;2.67;;;8.70;99.90;;;;;;7372254;19;20292;-60
2024/04/04 04:14:11;;;;;;;9.25;2.00;;;8.70;99.90;;;;;;7370942;19;20026;-59
2024/04/04 04:16:38;;;;;;;8.95;2.25;;;8.70;99.90;;;;;;7370763;19;20010;-59
2024/04/04 04:19:04;;;;;;;8.32;2.13;;;8.80;99.90;;;;;;7366229;19;20014;-66
2024/04/04 04:21:30;;;;;;;9.20;2.03;;;8.80;99.90;;;;;;7371980;19;20022;-59
2024/04/04 04:23:59;;;;;;;6.32;2.17;;;8.80;99.90;;;;;;7370309;19;20022;-59
2024/04/04 04:26:25;;;;;;;6.93;1.80;;;8.80;99.90;;;;;;7372473;19;20019;-59
2024/04/04 04:28:52;;;;;;;9.02;2.58;;;8.90;99.90;;;;;;7369069;19;20517;-66
2024/04/04 04:31:28;;;;;;;7.32;2.10;;;8.90;99.90;;;;;;7366038;19;20021;-59
2024/04/04 04:33:58;;;;;;;8.98;2.22;;;8.90;99.90;;;;;;7369179;19;20067;-65
2024/04/04 04:36:55;;;;;;;9.88;2.20;;;8.90;99.90;;;;;;7369066;19;20066;-61
2024/04/04 04:39:24;;;;;;;8.18;2.20;;;8.90;99.90;;;;;;7366678;19;20018;-65
2024/04/04 04:41:50;;;;;;;9.88;2.17;;;8.90;99.90;;;;;;7370329;19;20018;-68
2024/04/04 04:44:16;;;;;;;6.35;1.95;;;9.00;99.90;;;;;;7370679;19;20022;-59
2024/04/04 04:46:43;;;;;;;6.72;1.80;;;8.90;99.90;;;;;;7367014;19;20474;-59
2024/04/04 04:49:11;;;;;;;8.45;2.22;;;9.00;99.90;;;;;;7365886;19;20052;-60
2024/04/04 04:51:37;;;;;;;8.88;2.40;;;9.00;99.90;;;;;;7363204;19;20045;-66
2024/04/04 04:54:05;;;;;;;8.93;1.98;;;9.00;99.90;;;;;;7362309;19;20024;-61
2024/04/04 04:56:31;;;;;;;3.88;1.40;;;9.00;99.90;;;;;;7363955;19;20018;-66
2024/04/04 04:58:57;;;;;;;7.93;1.70;;;9.00;99.90;;;;;;7359771;19;20018;-60
2024/04/04 05:01:29;;;;;;;5.18;1.80;;;9.00;99.90;;;;;;7364999;19;20086;-60
2024/04/04 05:04:05;;;;;;;8.82;2.10;;;9.00;99.90;;;;;;7362064;19;20503;-60
2024/04/04 05:06:33;;;;;;;7.47;1.92;;;9.00;99.90;;;;;;7362823;19;20023;-60
2024/04/04 05:09:00;;;;;;;9.38;2.33;;;9.00;99.90;;;;;;7365784;19;20022;-60
2024/04/04 05:11:26;;;;;;;11.88;2.58;;;9.00;99.90;;;;;;7367025;19;20052;-60
2024/04/04 05:13:53;;;;;;;5.32;2.08;;;9.00;99.90;;;;;;7366279;19;20022;-59
2024/04/04 05:16:19;;;;;;;5.45;2.33;;;9.00;99.90;;;;;;7359451;19;20010;-59
2024/04/04 05:18:46;;;;;;;8.77;2.97;;;9.00;99.90;;;;;;7369867;19;20078;-66
2024/04/04 05:21:12;;;;;;;9.35;3.30;;;9.00;99.90;;;;;;7365789;19;20114;-66
2024/04/04 05:23:38;;;;;;;10.50;2.58;;;8.90;99.90;;;;;;7365168;19;20021;-60
2024/04/04 05:26:07;;;;;;;8.68;2.83;;;8.90;99.90;;;;;;7365610;19;20450;-64
2024/04/04 05:28:34;;;;;;;11.05;3.08;;;8.90;99.90;;;;;;7365717;19;20481;-61
2024/04/04 05:31:00;;;;;;;13.02;4.53;;;8.90;99.90;;;;;;7366912;19;20363;-59
2024/04/04 05:33:27;;;;;;;8.45;3.30;;;9.00;99.90;;;;;;7367551;19;20029;-59
2024/04/04 05:35:55;;;;;;;8.70;3.88;;;9.00;99.90;;;;;;7369119;19;20025;-66
2024/04/04 05:38:22;;;;;;;8.73;3.70;;;9.00;99.90;;;;;;7363688;19;20022;-66
2024/04/04 05:40:48;;;;;;;9.20;4.10;;;9.00;99.90;;;;;;7365712;19;20506;-58
2024/04/04 05:43:14;;;;;;;12.20;3.70;;;9.00;99.90;;;;;;7369437;19;20029;-65
2024/04/04 05:45:41;;;;;;;10.15;4.63;;;9.00;99.90;;;;;;7369440;19;20026;-65
2024/04/04 05:48:07;;;;;;;16.77;4.70;;;9.00;99.90;;;;;;7361343;19;20030;-65
2024/04/04 05:50:34;;;;;;;14.40;4.65;;;9.00;99.90;;;;;;7368501;19;20772;-65
2024/04/04 05:53:01;;;;;;;10.73;4.35;;;9.00;99.90;;;;;;7366339;19;20018;-66
2024/04/04 05:55:27;;;;;;;11.93;5.00;;;8.90;99.90;;;;;;7369359;19;20019;-60
2024/04/04 05:57:53;;;;;;;9.45;4.47;;;8.90;99.90;;;;;;7368971;19;20125;-60
2024/04/04 06:00:19;;;;;;;18.17;5.03;;;8.90;99.90;;;;;;7366838;19;20019;-60
2024/04/04 06:02:46;;;;;;;9.80;4.13;;;8.90;99.90;;;;;;7366534;19;20018;-59
2024/04/04 06:05:12;;;;;;;17.23;5.10;;;8.90;99.90;;;;;;7368233;19;20050;-60
2024/04/04 06:07:38;;;;;;;11.68;4.93;;;8.90;99.90;;;;;;7368009;19;20026;-59
2024/04/04 06:10:05;;;;;;;9.73;5.05;;;8.90;99.90;;;;;;7375127;19;20025;-66
2024/04/04 06:12:31;;;;;;;14.18;5.93;;;8.90;99.90;;;;;;7372785;19;20819;-60
2024/04/04 06:14:58;;;;;;;14.07;5.43;;;8.90;99.90;;;;;;7372821;19;20019;-65
2024/04/04 06:17:24;;;;;;;11.30;6.45;;;8.90;99.90;;;;;;7375712;19;20026;-60
2024/04/04 06:19:51;;;;;;;14.65;5.78;;;8.90;99.90;;;;;;7376511;19;20074;-60
2024/04/04 06:22:17;;;;;;;15.93;6.68;;;8.90;99.90;;;;;;7373768;19;20082;-62
2024/04/04 06:24:44;;;;;;;14.65;6.80;;;8.90;99.90;;;;;;7367502;19;20021;-64
2024/04/04 06:27:10;;;;;;;14.40;5.95;;;8.90;99.90;;;;;;7366242;19;20018;-65
2024/04/04 06:29:37;;;;;;;10.18;6.15;;;8.90;99.90;;;;;;7370168;19;20025;-59
2024/04/04 06:32:06;;;;;;;15.90;6.53;;;8.90;99.90;;;;;;7365571;19;20093;-59
2024/04/04 06:34:34;;;;;;;17.55;7.20;;;9.00;99.90;;;;;;7369737;19;20022;-60
2024/04/04 06:37:00;;;;;;;12.60;6.75;;;9.00;99.90;;;;;;7362883;19;20102;-59
2024/04/04 06:39:27;;;;;;;13.55;6.43;;;9.00;99.90;;;;;;7370418;19;20022;-59
2024/04/04 06:41:53;;;;;;;16.05;6.60;;;9.00;99.90;;;;;;7367596;19;20019;-59
2024/04/04 06:44:19;;;;;;;13.77;7.32;;;9.10;99.90;;;;;;7372693;19;20376;-60
2024/04/04 06:46:45;;;;;;;14.38;7.55;;;9.10;99.90;;;;;;7370748;19;20022;-60
2024/04/04 06:49:12;;;;;;;12.18;7.38;;;9.10;99.90;;;;;;7372927;19;20014;-60
2024/04/04 06:51:38;;;;;;;10.75;7.13;;;9.20;99.90;;;;;;7370918;19;20018;-60
2024/04/04 06:54:04;;;;;;;15.43;7.35;;;9.20;99.90;;;;;;7372104;19;20123;-60
2024/04/04 06:56:31;;;;;;;12.23;8.02;;;9.20;99.90;;;;;;7370030;19;20018;-60
2024/04/04 06:58:57;;;;;;;11.77;8.15;;;9.30;99.90;;;;;;7372298;19;20035;-60
2024/04/04 07:01:25;;;;;;;11.10;8.40;;;9.30;99.90;;;;;;7371257;19;20050;-60
2024/04/04 07:03:53;;;;;;;14.13;8.48;;;9.30;99.90;;;;;;7369413;19;20011;-66
2024/04/04 07:06:19;;;;;;;13.23;7.82;;;9.40;99.90;;;;;;7373508;19;20022;-65
2024/04/04 07:08:45;;;;;;;12.65;8.43;;;9.40;99.90;;;;;;7373208;19;20044;-60
2024/04/04 07:11:12;;;;;;;12.63;9.00;;;9.40;99.90;;;;;;7371187;19;20018;-60
2024/04/04 07:13:39;;;;;;;11.23;8.18;;;9.50;99.90;;;;;;7369318;19;20022;-61
2024/04/04 07:16:11;;;;;;;12.18;9.05;;;9.50;99.90;;;;;;7371651;19;20022;-65
2024/04/04 07:18:38;;;;;;;12.45;9.30;;;9.60;99.90;;;;;;7369124;19;20105;-65
2024/04/04 07:21:06;;;;;;;16.30;9.77;;;9.60;99.90;;;;;;7372826;19;20097;-65
2024/04/04 07:23:33;;;;;;;15.52;9.55;;;9.70;99.90;;;;;;7370753;19;20386;-66
2024/04/04 07:26:00;;;;;;;13.48;9.32;;;9.70;99.90;;;;;;7372248;19;20584;-66
2024/04/04 07:28:26;;;;;;;12.18;9.45;;;9.80;99.90;;;;;;7365399;19;20018;-66
2024/04/04 07:30:52;;;;;;;13.55;9.73;;;9.80;99.90;;;;;;7371411;19;20018;-67
2024/04/04 07:33:19;;;;;;;11.63;9.68;;;9.90;99.90;;;;;;7371179;19;20023;-66
2024/04/04 07:35:45;;;;;;;11.90;10.07;;;9.90;99.90;;;;;;7375095;19;20026;-66
2024/04/04 07:38:13;;;;;;;12.80;11.30;;;10.00;99.90;;;;;;7367157;19;20384;-65
2024/04/04 07:40:40;;;;;;;12.52;10.82;;;10.00;99.90;;;;;;7368171;19;20018;-66
2024/04/04 07:43:11;;;;;;;11.82;10.63;;;10.10;99.90;;;;;;7368592;19;20021;-66
2024/04/04 07:45:39;;;;;;;10.67;9.57;;;10.10;99.90;;;;;;7370766;19;21147;-65
2024/04/04 07:48:08;;;;;;;9.82;8.82;;;10.20;99.90;;;;;;7368159;19;20022;-66
2024/04/04 07:50:35;;;;;;;12.18;9.82;;;10.30;99.90;;;;;;7372893;19;20023;-65
2024/04/04 07:53:06;;;;;;;12.60;9.88;;;10.40;99.90;;;;;;7365413;19;20021;-60
2024/04/04 07:55:32;;;;;;;11.63;9.93;;;10.60;99.90;;;;;;7371775;19;20030;-60
2024/04/04 07:57:59;;;;;;;11.60;9.40;;;10.70;99.90;;;;;;7369086;19;20769;-60
2024/04/04 08:00:25;;;;;;;13.27;9.85;;;10.70;99.90;;;;;;7371347;19;20048;-65
2024/04/04 08:02:51;;;;;;;13.40;9.88;;;10.70;99.90;;;;;;7369297;19;20110;-65
2024/04/04 08:05:18;;;;;;;13.25;10.18;;;10.70;99.90;;;;;;7368263;19;21120;-65
2024/04/04 08:07:44;;;;;;;11.10;9.77;;;10.70;99.90;;;;;;7371557;19;20023;-65
2024/04/04 08:10:11;;;;;;;11.52;9.75;;;10.70;99.90;;;;;;7368471;19;20028;-65
2024/04/04 08:12:39;;;;;;;12.15;10.27;;;10.70;99.90;;;;;;7367625;19;21562;-65
2024/04/04 08:15:12;;;;;;;12.68;9.68;;;10.70;99.90;;;;;;7368073;19;20018;-60
2024/04/04 08:17:42;;;;;;;13.18;9.52;;;10.70;99.90;;;;;;7372493;19;20054;-60
2024/04/04 08:20:09;;;;;;;12.23;9.05;;;10.70;99.90;;;;;;7375879;19;20029;-60
2024/04/04 08:22:36;;;;;;;11.93;9.65;;;10.70;99.90;;;;;;7374434;19;20025;-65
2024/04/04 08:25:04;;;;;;;12.68;9.70;;;10.70;99.90;;;;;;7368229;19;20054;-64
2024/04/04 08:27:30;;;;;;;11.45;9.25;;;10.80;99.90;;;;;;7366339;19;20375;-60
2024/04/04 08:29:56;;;;;;;12.32;10.13;;;10.70;99.90;;;;;;7367878;19;20443;-64
2024/04/04 08:32:23;;;;;;;12.00;10.70;;;10.70;99.90;;;;;;7368834;19;20022;-60
2024/04/04 08:34:49;;;;;;;12.02;10.13;;;10.70;99.90;;;;;;7370795;19;20052;-60
2024/04/04 08:37:15;;;;;;;11.68;9.90;;;10.80;99.90;;;;;;7368509;19;20466;-64
2024/04/04 08:39:42;;;;;;;13.50;9.32;;;10.80;99.90;;;;;;7368860;19;20046;-64
2024/04/04 08:42:08;;;;;;;8.73;7.35;;;10.80;99.90;;;;;;7367981;19;20066;-65
2024/04/04 08:44:35;;;;;;;13.45;8.75;;;10.90;99.90;;;;;;7369991;19;20401;-64
2024/04/04 08:47:02;;;;;;;12.02;8.73;;;10.90;99.90;;;;;;7371604;19;20014;-66
2024/04/04 08:49:29;;;;;;;11.55;8.52;;;11.00;99.90;;;;;;7366148;19;20022;-65
2024/04/04 08:51:56;;;;;;;12.00;8.80;;;11.10;99.90;;;;;;7366000;19;20026;-60
2024/04/04 08:54:26;;;;;;;11.57;9.40;;;11.10;99.90;;;;;;7366480;19;20021;-60
2024/04/04 08:56:54;;;;;;;10.35;8.10;;;11.20;99.90;;;;;;7373210;19;20022;-60
2024/04/04 08:59:21;;;;;;;13.20;7.88;;;11.20;99.90;;;;;;7367537;19;20022;-60
2024/04/04 09:01:47;;;;;;;8.73;7.70;;;11.20;99.90;;;;;;7370865;19;20023;-61
2024/04/04 09:04:24;;;;;;;10.55;7.07;;;11.20;99.90;;;;;;7365662;19;20019;-60
2024/04/04 09:06:51;;;;;;;7.35;6.60;;;11.30;99.90;;;;;;7362060;19;20063;-65
2024/04/04 09:09:18;;;;;;;8.32;6.60;;;11.40;99.90;;;;;;7367581;19;20102;-64
2024/04/04 09:11:44;;;;;;;9.05;6.68;;;11.40;99.90;;;;;;7368974;19;20763;-60
2024/04/04 09:14:11;;;;;;;7.82;6.30;;;11.50;99.90;;;;;;7359368;19;20018;-60
2024/04/04 09:16:41;;;;;;;9.88;6.90;;;11.60;99.90;;;;;;7371872;19;20701;-60
2024/04/04 09:19:13;;;;;;;8.35;5.65;;;11.60;99.90;;;;;;7363314;19;20258;-65
2024/04/04 09:21:40;;;;;;;10.18;6.13;;;11.60;99.90;;;;;;7369700;19;20014;-65
2024/04/04 09:24:08;;;;;;;7.13;5.60;;;11.70;99.90;;;;;;7364156;19;20019;-65
2024/04/04 09:26:36;;;;;;;10.15;5.70;;;11.70;99.90;;;;;;7371592;19;20639;-65
2024/04/04 09:29:04;;;;;;;8.38;5.80;;;11.70;99.90;;;;;;7371764;19;20065;-61
2024/04/04 09:31:33;;;;;;;8.15;5.75;;;11.80;99.90;;;;;;7368588;19;20025;-61
2024/04/04 09:34:01;;;;;;;8.18;5.70;;;11.80;99.90;;;;;;7364466;19;20026;-65
2024/04/04 09:36:32;;;;;;;6.43;5.40;;;11.90;99.90;;;;;;7368863;19;20386;-65
2024/04/04 09:39:00;;;;;;;8.88;6.35;;;11.90;99.90;;;;;;7365128;19;20021;-65
2024/04/04 09:41:29;;;;;;;8.27;6.28;;;11.90;99.90;;;;;;7362584;19;20049;-65
2024/04/04 09:43:59;;;;;;;8.85;6.07;;;11.90;99.90;;;;;;7369801;19;20023;-66
2024/04/04 09:46:26;;;;;;;9.35;5.90;;;11.90;99.90;;;;;;7378174;19;20029;-65
2024/04/04 09:48:56;;;;;;;9.07;5.13;;;11.90;99.90;;;;;;7372606;19;20022;-65
2024/04/04 09:51:22;;;;;;;9.25;5.70;;;11.90;99.90;;;;;;7374693;19;20014;-65
2024/04/04 09:53:49;;;;;;;11.85;6.82;;;11.90;99.90;;;;;;7376753;19;20023;-64
2024/04/04 09:56:19;;;;;;;11.00;6.78;;;11.70;99.90;;;;;;7367749;19;20595;-63
2024/04/04 09:58:45;;;;;;;10.32;6.70;;;11.60;99.90;;;;;;7372094;19;20025;-63
2024/04/04 10:01:21;;;;;;;8.48;6.78;;;11.50;99.90;;;;;;7374766;19;20018;-64
2024/04/04 10:03:53;;;;;;;8.60;6.32;;;11.50;99.90;;;;;;7373350;19;20033;-64
2024/04/04 10:06:37;;;;;;;10.23;6.07;;;11.40;99.90;;;;;;7368330;19;20026;-64
2024/04/04 10:09:21;;;;;;;9.43;6.40;;;11.40;99.90;;;;;;7367984;19;20772;-60
2024/04/04 10:11:49;;;;;;;8.95;5.65;;;11.50;99.90;;;;;;7373086;19;20815;-64
2024/04/04 10:14:17;;;;;;;7.88;4.97;;;11.50;99.90;;;;;;7374481;19;20034;-64
2024/04/04 10:16:50;;;;;;;5.55;3.90;;;11.50;99.90;;;;;;7374559;19;20023;-64
2024/04/04 10:19:22;;;;;;;5.85;3.67;;;11.40;99.90;;;;;;7368845;19;20039;-65
2024/04/04 10:21:48;;;;;;;;;;;11.40;99.90;;;;;;7376381;19;20136;-59
2024/04/04 10:24:23;;;;;;;5.40;2.65;;;11.30;99.90;;;;;;7374523;19;19919;-66
2024/04/04 10:26:59;;;;;;;6.20;2.65;;;11.30;99.90;;;;;;7376630;19;20019;-63
2024/04/04 10:29:34;;;;;;;5.10;2.80;;;11.20;99.90;;;;;;7370974;19;20014;-64
2024/04/04 10:32:10;;;;;;;7.45;3.75;;;11.20;99.90;;;;;;7371474;19;20022;-64
2024/04/04 10:34:38;;;;;;;6.55;4.47;;;11.30;99.90;;;;;;7374664;19;20767;-64
2024/04/04 10:37:05;;;;;;;7.65;5.45;;;11.50;99.90;;;;;;7373027;19;20471;-65
2024/04/04 10:39:31;;;;;;;11.30;7.03;;;11.70;99.90;;;;;;7370231;19;20067;-64
2024/04/04 10:41:59;;;;;;;13.50;7.15;;;11.80;99.90;;;;;;7374103;19;20029;-64
2024/04/04 10:44:26;;;;;;;10.73;7.15;;;11.90;99.90;;;;;;7371402;19;20474;-65
2024/04/04 10:46:54;;;;;;;11.10;6.93;;;12.00;99.90;;;;;;7376817;19;20043;-65
2024/04/04 10:49:23;;;;;;;11.43;8.27;;;12.10;99.90;;;;;;7367534;19;20025;-64
2024/04/04 10:51:55;;;;;;;15.05;7.35;;;12.20;99.90;;;;;;7376976;19;20023;-64
2024/04/04 10:54:23;;;;;;;10.20;6.97;;;12.30;99.90;;;;;;7370545;19;20026;-65
2024/04/04 10:56:50;;;;;;;11.70;6.95;;;12.20;99.90;;;;;;7374324;19;20044;-64
2024/04/04 10:59:18;;;;;;;10.70;5.95;;;12.20;99.90;;;;;;7372863;19;20053;-64
2024/04/04 11:01:48;;;;;;;15.68;5.75;;;12.10;99.90;;;;;;7372997;19;20076;-65
2024/04/04 11:04:20;;;;;;;8.75;4.55;;;12.10;99.90;;;;;;7369891;19;20044;-65
2024/04/04 11:06:48;;;;;;;10.48;4.85;;;12.10;99.90;;;;;;7371563;19;20089;-65
2024/04/04 11:09:19;;;;;;;9.90;4.60;;;12.10;99.90;;;;;;7368321;19;20022;-63
2024/04/04 11:11:55;;;;;;;7.20;3.58;;;12.20;99.90;;;;;;7369839;19;20443;-60
2024/04/04 11:14:24;;;;;;;9.45;3.65;;;12.20;99.90;;;;;;7373393;19;20033;-63
2024/04/04 11:16:57;;;;;;;8.70;3.55;;;12.10;99.90;;;;;;7370172;19;20516;-59
2024/04/04 11:19:24;;;;;;;10.80;3.13;;;12.10;99.90;;;;;;7368323;19;20014;-60
2024/04/04 11:21:51;;;;;;;7.07;2.88;;;12.10;99.90;;;;;;7375393;19;20014;-60
2024/04/04 11:24:19;;;;;;;6.47;2.70;;;12.60;99.90;;;;;;7375731;19;20323;-61
2024/04/04 11:26:46;;;;;;;7.10;2.50;;;13.20;99.90;;;;;;7372689;19;20049;-64
2024/04/04 11:29:12;;;;;;;5.95;2.60;;;13.50;99.90;;;;;;7366631;19;20032;-60
2024/04/04 11:31:38;;;;;;;5.95;2.22;;;14.00;99.90;;;;;;7373145;19;20513;-61
2024/04/04 11:34:06;;;;;;;9.52;2.72;;;13.70;99.90;;;;;;7364131;19;20325;-60
2024/04/04 11:36:33;;;;;;;9.18;2.15;;;13.60;99.90;;;;;;7369520;19;20025;-64
2024/04/04 11:39:00;;;;;;;7.47;2.70;;;13.40;99.90;;;;;;7368719;19;20018;-62
2024/04/04 11:41:26;;;;;;;5.65;1.98;;;13.20;99.90;;;;;;7377363;19;20074;-60
2024/04/04 11:43:53;;;;;;;8.02;2.42;;;13.10;99.90;;;;;;7375169;19;20022;-60
2024/04/04 11:46:19;;;;;;;10.15;2.47;;;12.80;99.90;;;;;;7375508;19;20044;-60
2024/04/04 11:48:46;;;;;;;6.00;1.85;;;12.90;99.90;;;;;;7369531;19;20014;-63
2024/04/04 11:51:12;;;;;;;9.57;2.05;;;13.60;99.90;;;;;;7372315;19;20019;-64
2024/04/04 11:53:38;;;;;;;8.82;2.05;;;13.80;99.90;;;;;;7376079;19;20038;-64
2024/04/04 11:56:06;;;;;;;11.10;1.95;;;13.50;99.90;;;;;;7372639;19;20109;-64
2024/04/04 11:58:34;;;;;;;8.13;2.08;;;13.00;99.90;;;;;;7375316;19;20589;-64
2024/04/04 12:01:00;;;;;;;10.50;2.30;;;13.00;99.90;;;;;;7370157;19;20059;-65
2024/04/04 12:03:27;;;;;;;8.25;2.05;;;13.10;99.90;;;;;;7374796;19;20018;-64
2024/04/04 12:05:54;;;;;;;9.38;1.85;;;13.10;99.90;;;;;;7374899;19;20029;-65
2024/04/04 12:08:20;;;;;;;9.18;2.00;;;13.30;99.90;;;;;;7370930;19;20026;-65
2024/04/04 12:10:46;;;;;;;9.90;1.90;;;13.20;99.90;;;;;;7375212;19;20029;-65
2024/04/04 12:13:13;;;;;;;7.80;2.15;;;13.40;99.90;;;;;;7370655;19;20018;-65
2024/04/04 12:15:48;;;;;;;7.53;2.00;;;13.60;99.90;;;;;;7371841;19;20122;-64
2024/04/04 12:21:03;;;;;;;8.73;2.10;;;15.90;99.90;;;;;;7370119;19;20018;-63
2024/04/04 12:23:30;;;;;;;11.38;1.95;;;16.30;99.90;;;;;;7375145;19;20478;-61
2024/04/04 12:25:58;;;;;;;7.18;1.75;;;15.70;22.30;;;;;;7371213;19;20118;-60
2024/04/04 12:28:25;;;;;;;6.18;1.55;;;15.30;99.90;;;;;;7369527;19;20050;-60
2024/04/04 12:30:52;;;;;;;9.98;2.08;;;14.70;92.00;;;;;;7367875;19;20030;-64
2024/04/04 12:33:18;;;;;;;12.60;3.45;;;14.80;99.90;;;;;;7370539;19;20481;-63
2024/04/04 12:35:44;;;;;;;16.10;2.78;;;15.80;99.90;;;;;;7373409;19;20025;-64
2024/04/04 12:38:10;;;;;;;12.57;3.90;;;16.40;8.90;;;;;;7371834;19;20026;-64
2024/04/04 12:40:37;;;;;;;9.88;2.85;;;16.90;35.20;;;;;;7372555;19;21118;-60
2024/04/04 12:43:04;;;;;;;9.27;3.05;;;16.40;1.00;;;;;;7371366;19;20601;-60
2024/04/04 12:45:30;;;;;;;14.73;2.58;;;15.90;1.00;;;;;;7370830;19;20380;-60
2024/04/04 12:47:56;;;;;;;8.80;2.00;;;15.60;1.00;;;;;;7371369;19;20834;-63
2024/04/04 12:50:24;;;;;;;10.48;2.42;;;15.70;1.00;;;;;;7369713;19;20023;-59